Time;durP1;ratioP1;P1;durP2;ratioP2;P2;SDS_P1;SDS_P2;PMS_P1;PMS_P2;Temp;Humidity;BMP_temperature;BMP_pressure;BME280_temperature;BME280_humidity;BME280_pressure;Samples;Min_cycle;Max_cycle;Signal;HPM_P1;HPM_P2
2022/08/25 00:01:13;;;;;;;;;;;26.30;59.40;;;;;;4994844;28;19921;-69
2022/08/25 00:03:39;;;;;;;;;;;26.30;59.20;;;;;;4995050;28;19925;-66
2022/08/25 00:06:05;;;;;;;;;;;26.30;59.00;;;;;;4991705;28;20352;-66
2022/08/25 00:08:33;;;;;;;;;;;26.30;58.80;;;;;;5019386;28;20027;-66
2022/08/25 00:11:02;;;;;;;;;;;26.30;58.70;;;;;;4991738;28;19925;-66
2022/08/25 00:13:28;;;;;;;;;;;26.30;58.50;;;;;;4992790;28;19914;-66
2022/08/25 00:15:53;;;;;;;;;;;26.30;58.40;;;;;;4992095;28;19918;-66
2022/08/25 00:18:19;;;;;;;;;;;26.30;58.30;;;;;;4990672;28;19913;-66
2022/08/25 00:20:46;;;;;;;;;;;26.30;58.20;;;;;;4997162;28;19921;-69
2022/08/25 00:23:11;;;;;;;;;;;26.30;58.40;;;;;;4998764;28;19929;-70
2022/08/25 00:25:37;;;;;;;;;;;26.20;58.50;;;;;;4998906;28;19914;-69
2022/08/25 00:28:02;;;;;;;;;;;26.20;58.60;;;;;;4993745;28;19964;-69
2022/08/25 00:30:29;;;;;;;;;;;26.10;58.50;;;;;;5021843;28;19940;-69
2022/08/25 00:32:55;;;;;;;;;;;26.00;58.60;;;;;;5015313;28;19921;-69
2022/08/25 00:35:21;;;;;;;;;;;26.00;58.70;;;;;;5001860;28;19963;-69
2022/08/25 00:37:46;;;;;;;;;;;26.00;58.70;;;;;;4985674;28;20007;-69
2022/08/25 00:40:12;;;;;;;;;;;26.00;58.70;;;;;;5007749;28;19918;-69
2022/08/25 00:42:38;;;;;;;;;;;26.00;58.90;;;;;;5028206;28;19928;-70
2022/08/25 00:45:05;;;;;;;;;;;25.90;58.80;;;;;;5027262;28;19917;-69
2022/08/25 00:47:30;;;;;;;;;;;25.80;58.80;;;;;;5018745;28;20313;-69
2022/08/25 00:49:58;;;;;;;;;;;25.70;58.90;;;;;;5014333;28;19917;-69
2022/08/25 00:52:35;;;;;;;;;;;25.70;58.80;;;;;;5013699;28;19914;-69
2022/08/25 00:55:23;;;;;;;;;;;25.70;58.70;;;;;;5019588;28;19928;-69
2022/08/25 00:57:55;;;;;;;;;;;25.70;58.70;;;;;;5008649;28;19913;-69
2022/08/25 01:00:20;;;;;;;;;;;25.70;58.70;;;;;;5015298;28;20549;-70
2022/08/25 01:02:46;;;;;;;;;;;25.70;58.50;;;;;;5012374;28;19929;-69
2022/08/25 01:05:12;;;;;;;;;;;25.60;58.40;;;;;;5009770;28;19968;-69
2022/08/25 01:07:38;;;;;;;;;;;25.60;58.40;;;;;;5029213;28;20268;-70
2022/08/25 01:10:06;;;;;;;;;;;25.60;58.30;;;;;;5025043;28;19913;-70
2022/08/25 01:12:32;;;;;;;;;;;25.60;58.40;;;;;;5023818;28;20304;-69
2022/08/25 01:14:59;;;;;;;;;;;25.50;58.50;;;;;;4985590;28;19929;-69
2022/08/25 01:17:31;;;;;;;;;;;25.50;58.50;;;;;;5013931;28;19913;-70
2022/08/25 01:19:56;;;;;;;;;;;25.50;58.50;;;;;;5013983;28;19925;-69
2022/08/25 01:22:25;;;;;;;;;;;25.50;58.40;;;;;;4993067;28;19922;-70
2022/08/25 01:24:55;;;;;;;;;;;25.40;58.40;;;;;;5031051;28;19918;-70
2022/08/25 01:27:20;;;;;;;;;;;25.30;58.30;;;;;;5017084;28;19917;-70
2022/08/25 01:29:46;;;;;;;;;;;25.30;58.40;;;;;;5021429;28;19933;-70
2022/08/25 01:32:13;;;;;;;;;;;25.30;58.40;;;;;;5025777;28;19928;-69
2022/08/25 01:34:40;;;;;;;;;;;25.30;58.30;;;;;;5010493;28;19922;-69
2022/08/25 01:37:06;;;;;;;;;;;25.20;58.20;;;;;;5001863;28;19940;-70
2022/08/25 01:39:32;;;;;;;;;;;25.20;58.80;;;;;;5020069;28;19917;-70
2022/08/25 01:42:08;;;;;;;;;;;25.20;58.20;;;;;;5026135;28;19921;-69
2022/08/25 01:44:35;;;;;;;;;;;25.20;58.30;;;;;;4995280;28;19921;-69
2022/08/25 01:47:00;;;;;;;;;;;25.10;58.30;;;;;;4996508;28;19917;-70
2022/08/25 01:49:26;;;;;;;;;;;25.10;58.30;;;;;;5015415;28;20011;-69
2022/08/25 01:51:55;;;;;;;;;;;25.10;58.30;;;;;;5011542;28;20360;-70
2022/08/25 01:54:20;;;;;;;;;;;25.00;58.20;;;;;;5029631;28;19913;-70
2022/08/25 01:56:46;;;;;;;;;;;25.00;58.30;;;;;;5011283;28;19944;-70
2022/08/25 01:59:13;;;;;;;;;;;24.90;58.30;;;;;;5007595;28;19967;-69
2022/08/25 02:01:39;;;;;;;;;;;24.90;58.30;;;;;;5025545;28;19920;-70
2022/08/25 02:04:05;;;;;;;;;;;24.90;58.20;;;;;;5011755;28;19918;-70
2022/08/25 02:06:31;;;;;;;;;;;24.90;58.20;;;;;;5010794;28;19921;-69
2022/08/25 02:08:59;;;;;;;;;;;24.90;58.10;;;;;;4991713;28;19913;-70
2022/08/25 02:11:25;;;;;;;;;;;25.00;58.00;;;;;;5026529;28;19917;-70
2022/08/25 02:13:51;;;;;;;;;;;25.00;57.90;;;;;;5023352;28;19928;-70
2022/08/25 02:16:19;;;;;;;;;;;25.00;58.00;;;;;;5027880;28;19917;-70
2022/08/25 02:18:46;;;;;;;;;;;25.00;58.00;;;;;;5025727;28;20055;-70
2022/08/25 02:21:11;;;;;;;;;;;25.00;58.00;;;;;;5022684;28;19924;-69
2022/08/25 02:23:37;;;;;;;;;;;25.00;57.90;;;;;;5018643;28;19929;-70
2022/08/25 02:26:03;;;;;;;;;;;24.90;57.90;;;;;;5022467;28;19924;-70
2022/08/25 02:28:28;;;;;;;;;;;25.00;57.90;;;;;;5030290;28;19921;-70
2022/08/25 02:30:54;;;;;;;;;;;25.00;57.90;;;;;;5018245;28;19932;-70
2022/08/25 02:33:19;;;;;;;;;;;24.90;57.80;;;;;;5027052;28;20030;-70
2022/08/25 02:35:45;;;;;;;;;;;25.00;57.90;;;;;;5022935;28;19921;-69
2022/08/25 02:38:10;;;;;;;;;;;25.00;57.70;;;;;;5003491;28;20028;-70
2022/08/25 02:40:36;;;;;;;;;;;25.00;57.60;;;;;;5019720;28;19921;-70
2022/08/25 02:43:02;;;;;;;;;;;25.00;57.50;;;;;;5022435;28;20004;-70
2022/08/25 02:45:27;;;;;;;;;;;25.00;57.90;;;;;;4982981;28;19925;-70
2022/08/25 02:47:53;;;;;;;;;;;25.10;57.10;;;;;;5012469;28;20292;-70
2022/08/25 02:50:19;;;;;;;;;;;25.10;56.80;;;;;;5010235;28;20008;-70
2022/08/25 02:52:45;;;;;;;;;;;25.10;56.60;;;;;;5006993;28;19921;-70
2022/08/25 02:55:12;;;;;;;;;;;25.10;56.30;;;;;;5011627;28;19925;-70
2022/08/25 02:57:39;;;;;;;;;;;25.20;56.20;;;;;;5026008;28;19921;-70
2022/08/25 03:00:05;;;;;;;;;;;25.20;55.90;;;;;;5013082;28;19933;-70
2022/08/25 03:02:31;;;;;;;;;;;25.10;55.80;;;;;;5009814;28;19928;-70
2022/08/25 03:04:56;;;;;;;;;;;25.20;55.70;;;;;;5018470;28;20324;-70
2022/08/25 03:07:22;;;;;;;;;;;25.10;55.60;;;;;;5015266;28;19992;-70
2022/08/25 03:09:47;;;;;;;;;;;25.10;55.20;;;;;;5018522;28;20273;-70
2022/08/25 03:12:13;;;;;;;;;;;25.10;55.20;;;;;;5016113;28;19921;-70
2022/08/25 03:14:39;;;;;;;;;;;25.10;55.20;;;;;;5017568;28;19917;-70
2022/08/25 03:17:05;;;;;;;;;;;25.10;55.20;;;;;;5014423;28;20004;-70
2022/08/25 03:19:31;;;;;;;;;;;25.10;55.30;;;;;;5008670;28;19960;-70
2022/08/25 03:21:58;;;;;;;;;;;25.00;55.40;;;;;;5014956;28;19917;-70
2022/08/25 03:24:24;;;;;;;;;;;25.00;55.50;;;;;;5017783;28;19979;-70
2022/08/25 03:26:52;;;;;;;;;;;24.90;55.60;;;;;;5019862;28;19917;-70
2022/08/25 03:29:19;;;;;;;;;;;24.90;55.50;;;;;;5012211;28;19967;-70
2022/08/25 03:31:44;;;;;;;;;;;24.90;55.60;;;;;;4994898;28;19917;-69
2022/08/25 03:34:15;;;;;;;;;;;24.90;55.80;;;;;;5016329;28;20063;-70
2022/08/25 03:36:41;;;;;;;;;;;24.80;55.80;;;;;;5020263;28;19913;-70
2022/08/25 03:39:07;;;;;;;;;;;24.80;56.20;;;;;;5012028;28;19918;-70
2022/08/25 03:41:32;;;;;;;;;;;24.80;56.30;;;;;;4988721;28;19924;-70
2022/08/25 03:43:58;;;;;;;;;;;24.70;56.20;;;;;;5017857;28;19960;-70
2022/08/25 03:46:26;;;;;;;;;;;24.70;56.10;;;;;;4996519;28;19920;-70
2022/08/25 03:48:52;;;;;;;;;;;24.70;56.20;;;;;;4993384;28;19921;-70
2022/08/25 03:51:22;;;;;;;;;;;24.70;56.40;;;;;;5013434;28;19914;-70
2022/08/25 03:53:48;;;;;;;;;;;24.70;56.60;;;;;;5001707;28;20392;-70
2022/08/25 03:56:14;;;;;;;;;;;24.60;56.70;;;;;;5011665;28;19917;-70
2022/08/25 03:58:39;;;;;;;;;;;24.60;56.70;;;;;;5011443;28;19967;-70
2022/08/25 04:01:05;;;;;;;;;;;24.50;56.60;;;;;;5015393;28;19975;-66
2022/08/25 04:03:31;;;;;;;;;;;24.50;56.50;;;;;;5014900;28;20011;-66
2022/08/25 04:06:00;;;;;;;;;;;24.50;56.50;;;;;;5010357;28;19928;-65
2022/08/25 04:08:25;;;;;;;;;;;24.50;56.40;;;;;;4992716;28;19917;-66
2022/08/25 04:10:51;;;;;;;;;;;24.50;56.60;;;;;;5011179;28;19928;-66
2022/08/25 04:13:17;;;;;;;;;;;24.50;56.60;;;;;;5010810;28;19921;-66
2022/08/25 04:15:43;;;;;;;;;;;24.40;56.50;;;;;;5017410;28;19913;-66
2022/08/25 04:18:10;;;;;;;;;;;24.40;56.60;;;;;;5022289;28;19917;-66
2022/08/25 04:20:36;;;;;;;;;;;24.30;56.80;;;;;;5013980;28;19921;-67
2022/08/25 04:23:02;;;;;;;;;;;24.30;57.10;;;;;;5012085;28;19925;-66
2022/08/25 04:25:27;;;;;;;;;;;24.20;57.00;;;;;;5016213;28;19935;-66
2022/08/25 04:27:53;;;;;;;;;;;24.20;57.00;;;;;;4975772;28;19917;-67
2022/08/25 04:30:19;;;;;;;;;;;24.20;57.00;;;;;;5007716;28;20385;-67
2022/08/25 04:32:47;;;;;;;;;;;24.20;57.20;;;;;;4994711;28;19964;-67
2022/08/25 04:35:13;;;;;;;;;;;24.10;57.30;;;;;;4991571;28;19988;-66
2022/08/25 04:37:38;;;;;;;;;;;24.10;57.90;;;;;;5012297;28;19922;-67
2022/08/25 04:40:04;;;;;;;;;;;24.10;57.50;;;;;;5009684;28;20349;-66
2022/08/25 04:42:30;;;;;;;;;;;24.00;57.60;;;;;;4977353;28;20013;-66
2022/08/25 04:44:55;;;;;;;;;;;24.00;57.90;;;;;;4993078;28;19921;-66
2022/08/25 04:47:21;;;;;;;;;;;23.90;57.90;;;;;;5015370;28;19921;-66
2022/08/25 04:49:46;;;;;;;;;;;23.90;58.00;;;;;;5008271;28;19918;-66
2022/08/25 04:52:12;;;;;;;;;;;23.90;58.10;;;;;;5013480;28;19913;-66
2022/08/25 04:54:37;;;;;;;;;;;23.80;58.10;;;;;;5009949;28;19918;-66
2022/08/25 04:57:03;;;;;;;;;;;23.80;58.20;;;;;;5015919;28;19913;-66
2022/08/25 04:59:28;;;;;;;;;;;23.80;58.30;;;;;;5008339;28;20677;-67
2022/08/25 05:01:56;;;;;;;;;;;23.80;58.40;;;;;;5012564;28;19933;-66
2022/08/25 05:04:21;;;;;;;;;;;23.80;58.40;;;;;;5020538;28;19921;-66
2022/08/25 05:06:47;;;;;;;;;;;23.80;58.70;;;;;;5014288;28;20333;-66
2022/08/25 05:09:13;;;;;;;;;;;23.80;58.80;;;;;;5011334;28;20369;-66
2022/08/25 05:11:39;;;;;;;;;;;23.70;58.80;;;;;;5013454;28;20459;-66
2022/08/25 05:14:10;;;;;;;;;;;23.70;58.90;;;;;;5015081;28;19936;-66
2022/08/25 05:16:36;;;;;;;;;;;23.70;59.10;;;;;;5016265;28;19966;-66
2022/08/25 05:19:01;;;;;;;;;;;23.70;58.90;;;;;;5014867;28;20364;-70
2022/08/25 05:21:27;;;;;;;;;;;23.70;58.60;;;;;;4987622;28;19921;-70
2022/08/25 05:23:56;;;;;;;;;;;23.80;58.50;;;;;;5016299;28;20277;-70
2022/08/25 05:26:22;;;;;;;;;;;23.80;58.40;;;;;;5016009;28;19956;-70
2022/08/25 05:28:49;;;;;;;;;;;23.80;58.10;;;;;;5015468;28;20362;-70
2022/08/25 05:31:15;;;;;;;;;;;23.90;57.90;;;;;;5017015;28;19926;-70
2022/08/25 05:33:40;;;;;;;;;;;23.90;57.70;;;;;;5020472;28;19917;-70
2022/08/25 05:36:08;;;;;;;;;;;23.90;57.40;;;;;;5015873;28;19933;-70
2022/08/25 05:38:34;;;;;;;;;;;24.00;57.30;;;;;;5019729;28;19917;-70
2022/08/25 05:41:04;;;;;;;;;;;24.10;57.00;;;;;;5013698;28;19917;-70
2022/08/25 05:43:30;;;;;;;;;;;24.10;56.70;;;;;;5018824;28;19921;-70
2022/08/25 05:45:56;;;;;;;;;;;24.10;56.50;;;;;;5015608;28;20052;-70
2022/08/25 05:48:22;;;;;;;;;;;24.10;56.40;;;;;;5014225;28;20383;-70
2022/08/25 05:50:52;;;;;;;;;;;24.10;56.20;;;;;;5013087;28;20007;-70
2022/08/25 05:53:18;;;;;;;;;;;24.20;56.00;;;;;;4999949;28;20368;-70
2022/08/25 05:55:44;;;;;;;;;;;24.20;55.80;;;;;;5020590;28;19917;-70
2022/08/25 05:58:10;;;;;;;;;;;24.20;55.60;;;;;;5015353;28;19914;-70
2022/08/25 06:00:36;;;;;;;;;;;24.20;55.50;;;;;;5011882;28;20021;-70
2022/08/25 06:03:01;;;;;;;;;;;24.40;55.40;;;;;;5011720;28;19921;-70
2022/08/25 06:05:28;;;;;;;;;;;24.40;55.20;;;;;;5026542;28;19924;-70
2022/08/25 06:07:54;;;;;;;;;;;24.40;55.10;;;;;;5020608;28;19921;-70
2022/08/25 06:10:20;;;;;;;;;;;24.50;55.00;;;;;;5012250;28;20339;-70
2022/08/25 06:12:46;;;;;;;;;;;24.50;54.90;;;;;;5021548;28;19968;-70
2022/08/25 06:15:13;;;;;;;;;;;24.50;54.70;;;;;;5018311;28;19921;-70
2022/08/25 06:17:41;;;;;;;;;;;24.50;54.50;;;;;;5010142;28;20372;-70
2022/08/25 06:20:08;;;;;;;;;;;24.60;54.50;;;;;;5015899;28;19924;-70
2022/08/25 06:22:33;;;;;;;;;;;24.60;54.50;;;;;;5019252;28;20416;-70
2022/08/25 06:24:59;;;;;;;;;;;24.70;54.30;;;;;;5015352;28;19963;-70
2022/08/25 06:27:24;;;;;;;;;;;24.70;54.20;;;;;;5021770;28;20034;-70
2022/08/25 06:29:50;;;;;;;;;;;24.80;54.20;;;;;;4997621;28;19972;-71
2022/08/25 06:32:16;;;;;;;;;;;24.90;54.20;;;;;;5015628;28;20365;-71
2022/08/25 06:34:42;;;;;;;;;;;24.90;54.20;;;;;;4997141;28;19917;-71
2022/08/25 06:37:07;;;;;;;;;;;24.90;54.10;;;;;;5014159;28;20340;-67
2022/08/25 06:39:33;;;;;;;;;;;25.00;54.00;;;;;;5011266;28;20336;-67
2022/08/25 06:41:58;;;;;;;;;;;25.10;53.90;;;;;;5016123;28;19921;-67
2022/08/25 06:44:26;;;;;;;;;;;25.10;53.70;;;;;;4995756;28;19917;-66
2022/08/25 06:46:51;;;;;;;;;;;25.10;53.50;;;;;;4999709;28;19921;-67
2022/08/25 06:49:17;;;;;;;;;;;25.20;53.50;;;;;;5016238;28;20411;-66
2022/08/25 06:51:43;;;;;;;;;;;25.20;53.30;;;;;;5015834;28;19956;-66
2022/08/25 06:54:11;;;;;;;;;;;25.30;53.30;;;;;;5011021;28;19930;-67
2022/08/25 06:56:38;;;;;;;;;;;25.30;53.20;;;;;;5011785;28;20280;-66
2022/08/25 06:59:05;;;;;;;;;;;25.30;53.00;;;;;;5017747;28;20336;-66
2022/08/25 07:01:31;;;;;;;;;;;25.30;53.00;;;;;;5012029;28;20042;-67
2022/08/25 07:03:57;;;;;;;;;;;25.40;52.90;;;;;;5010986;28;20536;-67
2022/08/25 07:06:23;;;;;;;;;;;25.50;52.90;;;;;;5012290;28;19965;-67
2022/08/25 07:08:49;;;;;;;;;;;25.50;52.80;;;;;;4994950;28;19921;-66
2022/08/25 07:11:15;;;;;;;;;;;25.60;52.80;;;;;;4976680;28;20360;-66
2022/08/25 07:13:41;;;;;;;;;;;25.70;52.70;;;;;;5012172;28;19971;-66
2022/08/25 07:16:07;;;;;;;;;;;25.80;52.60;;;;;;5012326;28;20327;-66
2022/08/25 07:18:34;;;;;;;;;;;25.80;52.30;;;;;;5010705;28;20300;-66
2022/08/25 07:20:59;;;;;;;;;;;25.90;52.30;;;;;;5018054;28;19925;-67
2022/08/25 07:23:25;;;;;;;;;;;26.00;52.10;;;;;;5022909;28;20180;-66
2022/08/25 07:25:51;;;;;;;;;;;26.00;52.10;;;;;;5013851;28;19972;-66
2022/08/25 07:28:17;;;;;;;;;;;26.00;52.00;;;;;;5010243;28;20311;-66
2022/08/25 07:30:43;;;;;;;;;;;26.10;51.90;;;;;;5012614;28;19926;-66
2022/08/25 07:33:09;;;;;;;;;;;26.20;51.90;;;;;;5012701;28;19953;-66
2022/08/25 07:35:36;;;;;;;;;;;26.30;51.90;;;;;;5001226;28;19913;-67
2022/08/25 07:38:02;;;;;;;;;;;26.40;51.70;;;;;;5017691;28;20461;-66
2022/08/25 07:40:29;;;;;;;;;;;26.40;51.60;;;;;;4993532;28;19914;-66
2022/08/25 07:42:55;;;;;;;;;;;26.50;51.60;;;;;;5021874;28;19921;-66
2022/08/25 07:45:28;;;;;;;;;;;26.60;51.50;;;;;;5011645;28;19913;-66
2022/08/25 07:47:55;;;;;;;;;;;26.70;51.40;;;;;;5013717;28;21333;-66
2022/08/25 07:50:20;;;;;;;;;;;26.80;51.40;;;;;;5009512;28;19964;-66
2022/08/25 07:52:46;;;;;;;;;;;26.90;51.30;;;;;;5017744;28;21036;-66
2022/08/25 07:55:12;;;;;;;;;;;27.00;51.20;;;;;;5017173;28;19929;-66
2022/08/25 07:57:41;;;;;;;;;;;27.10;51.00;;;;;;4993104;28;19917;-67
2022/08/25 08:00:07;;;;;;;;;;;27.20;51.00;;;;;;5011653;28;19968;-66
2022/08/25 08:02:32;;;;;;;;;;;27.20;50.80;;;;;;5012145;28;20336;-66
2022/08/25 08:04:58;;;;;;;;;;;27.40;50.70;;;;;;5016723;28;19971;-66
2022/08/25 08:07:24;;;;;;;;;;;27.40;50.60;;;;;;5010526;28;20038;-66
2022/08/25 08:09:50;;;;;;;;;;;27.50;50.40;;;;;;5008780;28;19971;-66
2022/08/25 08:12:16;;;;;;;;;;;27.60;50.40;;;;;;5013005;28;20274;-67
2022/08/25 08:14:42;;;;;;;;;;;27.70;50.40;;;;;;5009634;28;19928;-66
2022/08/25 08:17:07;;;;;;;;;;;27.80;50.20;;;;;;4991759;28;19917;-67
2022/08/25 08:19:33;;;;;;;;;;;27.80;50.00;;;;;;4997644;28;19937;-66
2022/08/25 08:21:59;;;;;;;;;;;27.90;49.90;;;;;;5009955;28;19925;-67
2022/08/25 08:24:25;;;;;;;;;;;27.90;49.70;;;;;;5010787;28;19914;-67
2022/08/25 08:26:50;;;;;;;;;;;28.00;49.60;;;;;;4992868;28;19917;-67
2022/08/25 08:29:18;;;;;;;;;;;28.10;49.60;;;;;;5014407;28;19926;-67
2022/08/25 08:31:44;;;;;;;;;;;28.20;49.60;;;;;;4991278;28;20321;-67
2022/08/25 08:34:11;;;;;;;;;;;28.30;49.30;;;;;;4992288;28;19952;-67
2022/08/25 08:36:36;;;;;;;;;;;28.30;49.10;;;;;;4989175;28;19918;-67
2022/08/25 08:39:02;;;;;;;;;;;28.40;48.90;;;;;;4992561;28;20014;-68
2022/08/25 08:44:35;;;;;;;;;;;28.40;49.00;;;;;;4995299;28;19933;-66
2022/08/25 08:47:13;;;;;;;;;;;28.50;49.10;;;;;;4994548;28;19921;-67
2022/08/25 08:49:44;;;;;;;;;;;28.50;49.00;;;;;;4994774;28;19913;-67
2022/08/25 08:52:13;;;;;;;;;;;28.70;48.90;;;;;;4994721;28;19917;-66
2022/08/25 08:54:39;;;;;;;;;;;28.80;48.80;;;;;;4997625;28;19968;-66
2022/08/25 08:57:10;;;;;;;;;;;28.80;48.70;;;;;;4997154;28;19921;-67
2022/08/25 08:59:50;;;;;;;;;;;28.90;48.70;;;;;;4992803;28;19913;-67
2022/08/25 09:02:21;;;;;;;;;;;29.00;48.50;;;;;;4992829;28;19926;-66
2022/08/25 09:04:48;;;;;;;;;;;29.10;48.50;;;;;;4993605;28;19933;-67
2022/08/25 09:07:17;;;;;;;;;;;29.20;48.20;;;;;;5006012;28;19914;-67
2022/08/25 09:09:43;;;;;;;;;;;29.30;48.10;;;;;;4993740;28;19914;-67
2022/08/25 09:12:31;;;;;;;;;;;29.40;47.80;;;;;;4992053;28;19968;-71
2022/08/25 09:15:17;;;;;;;;;;;29.60;47.60;;;;;;4996735;28;21482;-71
2022/08/25 09:18:01;;;;;;;;;;;29.70;47.30;;;;;;4992603;28;19925;-69
2022/08/25 09:20:45;;;;;;;;;;;29.80;47.20;;;;;;4990668;28;19922;-69
2022/08/25 09:23:19;;;;;;;;;;;29.90;47.10;;;;;;4999084;28;19918;-70
2022/08/25 09:26:02;;;;;;;;;;;30.00;46.80;;;;;;4999026;28;19924;-70
2022/08/25 09:28:28;;;;;;;;;;;30.10;46.60;;;;;;4999202;28;19918;-70
2022/08/25 09:30:57;;;;;;;;;;;30.20;46.70;;;;;;5013414;28;19971;-70
2022/08/25 09:33:24;;;;;;;;;;;30.40;46.70;;;;;;4995048;28;20020;-70
2022/08/25 09:35:50;;;;;;;;;;;30.50;46.20;;;;;;5011885;28;20288;-69
2022/08/25 09:38:16;;;;;;;;;;;30.70;45.70;;;;;;5016971;28;19917;-70
2022/08/25 09:40:47;;;;;;;;;;;30.80;45.70;;;;;;5013523;28;19918;-70
2022/08/25 09:43:18;;;;;;;;;;;30.90;45.60;;;;;;5011907;28;19921;-70
2022/08/25 09:45:45;;;;;;;;;;;31.00;45.10;;;;;;5013587;28;19913;-70
2022/08/25 09:48:19;;;;;;;;;;;31.00;45.20;;;;;;5013381;28;19916;-70
2022/08/25 09:50:45;;;;;;;;;;;31.20;44.90;;;;;;5026976;28;19959;-70
2022/08/25 09:53:15;;;;;;;;;;;31.30;44.80;;;;;;5024250;28;19953;-70
2022/08/25 09:55:42;;;;;;;;;;;31.30;44.70;;;;;;4994383;28;19914;-70
2022/08/25 09:58:21;;;;;;;;;;;31.50;44.50;;;;;;4996041;28;19920;-70
2022/08/25 10:01:05;;;;;;;;;;;31.70;44.30;;;;;;4997446;28;19953;-70
2022/08/25 10:03:31;;;;;;;;;;;31.80;44.20;;;;;;5016587;28;20487;-70
2022/08/25 10:06:10;;;;;;;;;;;32.00;44.10;;;;;;5022805;28;19924;-70
2022/08/25 10:08:37;;;;;;;;;;;32.10;43.70;;;;;;5019419;28;20012;-70
2022/08/25 10:11:07;;;;;;;;;;;32.20;43.60;;;;;;5016520;28;19921;-70
2022/08/25 10:13:43;;;;;;;;;;;32.20;43.50;;;;;;5013398;28;19913;-70
2022/08/25 10:16:08;;;;;;;;;;;32.30;43.50;;;;;;5000798;28;19913;-70
2022/08/25 10:18:34;;;;;;;;;;;32.40;43.30;;;;;;5020884;28;19913;-70
2022/08/25 10:21:01;;;;;;;;;;;32.50;42.80;;;;;;5012405;28;19921;-70
2022/08/25 10:23:28;;;;;;;;;;;32.70;42.80;;;;;;5015904;28;19991;-70
2022/08/25 10:25:53;;;;;;;;;;;32.90;42.40;;;;;;5013822;28;19914;-70
2022/08/25 10:28:27;;;;;;;;;;;33.00;42.20;;;;;;5014770;28;19927;-70
2022/08/25 10:31:02;;;;;;;;;;;33.10;41.30;;;;;;4998581;28;20015;-70
2022/08/25 10:33:33;;;;;;;;;;;33.20;41.00;;;;;;4989877;28;20358;-70
2022/08/25 10:36:06;;;;;;;;;;;33.30;41.20;;;;;;5002971;28;19976;-70
2022/08/25 10:38:37;;;;;;;;;;;33.40;41.60;;;;;;4979403;28;19918;-70
2022/08/25 10:41:12;;;;;;;;;;;33.60;40.80;;;;;;4978278;28;19957;-71
2022/08/25 10:43:44;;;;;;;;;;;33.70;40.50;;;;;;5006177;28;19917;-70
2022/08/25 10:46:28;;;;;;;;;;;33.80;39.90;;;;;;5009588;28;19956;-70
2022/08/25 10:48:57;;;;;;;;;;;33.90;39.40;;;;;;5004236;28;19921;-70
2022/08/25 10:51:41;;;;;;;;;;;34.10;39.70;;;;;;5009020;28;19913;-71
2022/08/25 10:54:07;;;;;;;;;;;34.20;39.40;;;;;;5003224;28;19923;-70
2022/08/25 10:56:34;;;;;;;;;;;34.30;38.90;;;;;;4984055;28;19921;-70
2022/08/25 10:59:00;;;;;;;;;;;34.50;38.80;;;;;;4978091;28;19918;-70
2022/08/25 11:01:42;;;;;;;;;;;34.60;38.60;;;;;;5009614;28;19928;-71
2022/08/25 11:04:11;;;;;;;;;;;34.70;38.30;;;;;;5010258;28;20015;-70
2022/08/25 11:06:51;;;;;;;;;;;34.90;38.10;;;;;;5009987;28;19924;-70
2022/08/25 11:09:38;;;;;;;;;;;35.00;38.30;;;;;;5009881;28;19917;-70
2022/08/25 11:12:09;;;;;;;;;;;35.20;38.10;;;;;;4990936;28;20389;-71
2022/08/25 11:14:35;;;;;;;;;;;35.30;37.40;;;;;;5006918;28;20194;-71
2022/08/25 11:17:08;;;;;;;;;;;35.40;36.50;;;;;;5010378;28;19921;-67
2022/08/25 11:19:38;;;;;;;;;;;35.50;36.40;;;;;;5009160;28;19959;-67
2022/08/25 11:22:16;;;;;;;;;;;35.50;36.20;;;;;;5010452;28;19914;-67
2022/08/25 11:24:42;;;;;;;;;;;35.60;36.40;;;;;;4991746;28;19940;-67
2022/08/25 11:27:11;;;;;;;;;;;35.70;36.20;;;;;;5002605;28;19914;-70
2022/08/25 11:29:37;;;;;;;;;;;35.90;35.70;;;;;;4989407;28;19936;-70
2022/08/25 11:32:03;;;;;;;;;;;36.10;35.80;;;;;;5035403;28;19974;-70
2022/08/25 11:34:34;;;;;;;;;;;36.20;35.00;;;;;;5049029;28;20005;-71
2022/08/25 11:37:07;;;;;;;;;;;36.30;34.30;;;;;;5047977;28;19916;-67
2022/08/25 11:39:58;;;;;;;;;;;36.30;32.50;;;;;;5046702;28;20007;-67
2022/08/25 11:42:47;;;;;;;;;;;36.20;32.40;;;;;;5031286;28;19923;-71
2022/08/25 11:45:22;;;;;;;;;;;36.20;32.60;;;;;;5047973;28;19928;-70
2022/08/25 11:47:56;;;;;;;;;;;36.20;32.30;;;;;;5046586;28;19924;-71
2022/08/25 11:50:24;;;;;;;;;;;36.30;32.80;;;;;;5047528;28;19920;-70
2022/08/25 11:52:58;;;;;;;;;;;36.40;33.10;;;;;;5049162;28;19913;-67
2022/08/25 11:55:33;;;;;;;;;;;36.70;32.80;;;;;;5048919;28;19913;-68
2022/08/25 11:58:17;;;;;;;;;;;36.80;32.30;;;;;;5045871;28;20593;-67
2022/08/25 12:00:43;;;;;;;;;;;37.00;32.10;;;;;;5047428;28;20306;-67
2022/08/25 12:03:27;;;;;;;;;;;37.20;32.00;;;;;;5029941;28;19948;-67
2022/08/25 12:06:11;;;;;;;;;;;37.30;32.40;;;;;;5048578;28;19979;-67
2022/08/25 12:08:46;;;;;;;;;;;37.50;32.50;;;;;;5048666;28;19916;-67
2022/08/25 12:11:31;;;;;;;;;;;37.60;32.40;;;;;;5045446;28;19913;-67
2022/08/25 12:14:07;;;;;;;;;;;37.70;31.70;;;;;;5030031;28;19917;-67
2022/08/25 12:16:37;;;;;;;;;;;37.70;31.20;;;;;;5030302;28;19916;-67
2022/08/25 12:19:21;;;;;;;;;;;37.70;31.90;;;;;;5031009;28;20339;-67
2022/08/25 12:21:47;;;;;;;;;;;37.80;31.80;;;;;;5021770;28;20022;-67
2022/08/25 12:24:13;;;;;;;;;;;37.90;31.70;;;;;;5018531;28;19920;-67
2022/08/25 12:26:42;;;;;;;;;;;37.90;31.50;;;;;;5029424;28;19957;-67
2022/08/25 12:29:13;;;;;;;;;;;38.00;31.30;;;;;;5045437;28;19935;-67
2022/08/25 12:32:06;;;;;;;;;;;38.20;31.40;;;;;;5039975;28;19913;-67
2022/08/25 12:34:39;;;;;;;;;;;38.40;31.40;;;;;;5035448;28;19990;-68
2022/08/25 12:37:12;;;;;;;;;;;38.50;30.70;;;;;;5040453;28;19917;-71
2022/08/25 12:39:47;;;;;;;;;;;38.60;30.40;;;;;;5025153;28;20451;-71
2022/08/25 12:42:27;;;;;;;;;;;38.50;30.00;;;;;;5036927;28;21112;-71
2022/08/25 12:45:14;;;;;;;;;;;38.50;30.30;;;;;;5024940;28;19917;-67
2022/08/25 12:47:41;;;;;;;;;;;38.50;30.40;;;;;;5039921;28;19958;-67
2022/08/25 12:50:25;;;;;;;;;;;38.60;30.50;;;;;;5037937;28;19917;-67
2022/08/25 12:52:52;;;;;;;;;;;38.60;30.40;;;;;;5036686;28;20287;-67
2022/08/25 12:55:19;;;;;;;;;;;38.70;30.40;;;;;;5045198;28;19920;-67
2022/08/25 12:57:49;;;;;;;;;;;38.70;29.90;;;;;;5039961;28;19927;-67
2022/08/25 13:00:28;;;;;;;;;;;38.60;29.90;;;;;;5020355;28;19969;-67
2022/08/25 13:03:14;;;;;;;;;;;38.60;30.50;;;;;;5021529;28;19960;-67
2022/08/25 13:05:39;;;;;;;;;;;38.70;30.30;;;;;;5043700;28;19913;-67
2022/08/25 13:08:17;;;;;;;;;;;38.80;30.00;;;;;;5022678;28;20038;-68
2022/08/25 13:10:50;;;;;;;;;;;38.70;29.70;;;;;;5045169;28;19919;-67
2022/08/25 13:13:16;;;;;;;;;;;38.60;29.90;;;;;;5046875;28;20006;-67
2022/08/25 13:15:47;;;;;;;;;;;38.50;30.00;;;;;;5027515;28;19917;-67
2022/08/25 13:18:14;;;;;;;;;;;38.50;30.20;;;;;;5046696;28;19917;-67
2022/08/25 13:20:40;;;;;;;;;;;38.50;30.20;;;;;;5040549;28;20371;-68
2022/08/25 13:23:05;;;;;;;;;;;38.30;30.40;;;;;;5029095;28;19986;-67
2022/08/25 13:25:32;;;;;;;;;;;38.10;30.50;;;;;;5044704;28;19918;-67
2022/08/25 13:27:58;;;;;;;;;;;37.90;30.70;;;;;;5049896;28;20351;-67
2022/08/25 13:30:26;;;;;;;;;;;37.90;30.80;;;;;;5047599;28;20410;-68
2022/08/25 13:32:52;;;;;;;;;;;38.00;30.70;;;;;;5014831;28;19948;-67
2022/08/25 13:35:17;;;;;;;;;;;38.00;30.50;;;;;;5011354;28;19958;-67
2022/08/25 13:37:43;;;;;;;;;;;38.20;30.30;;;;;;5029308;28;19920;-67
2022/08/25 13:40:16;;;;;;;;;;;38.20;30.00;;;;;;5028351;28;19917;-67
2022/08/25 13:42:43;;;;;;;;;;;38.30;30.20;;;;;;5013324;28;20359;-67
2022/08/25 13:45:14;;;;;;;;;;;38.40;30.50;;;;;;5029896;28;20008;-67
2022/08/25 13:47:40;;;;;;;;;;;38.40;29.80;;;;;;5029543;28;20028;-67
2022/08/25 13:50:15;;;;;;;;;;;38.40;30.00;;;;;;5028716;28;19920;-67
2022/08/25 13:52:40;;;;;;;;;;;38.50;30.00;;;;;;5029241;28;19921;-67
2022/08/25 13:55:06;;;;;;;;;;;38.70;30.00;;;;;;5031021;28;20554;-67
2022/08/25 13:57:33;;;;;;;;;;;38.90;29.90;;;;;;5031916;28;19921;-67
2022/08/25 14:00:00;;;;;;;;;;;38.80;28.70;;;;;;5028338;28;20519;-67
2022/08/25 14:02:41;;;;;;;;;;;38.70;29.20;;;;;;5013538;28;19937;-68
2022/08/25 14:05:07;;;;;;;;;;;38.70;29.20;;;;;;5027604;28;19943;-67
2022/08/25 14:07:32;;;;;;;;;;;38.90;29.10;;;;;;5029556;28;20031;-67
2022/08/25 14:10:04;;;;;;;;;;;39.00;29.20;;;;;;5030354;28;20419;-67
2022/08/25 14:12:32;;;;;;;;;;;39.20;29.30;;;;;;5027924;28;19920;-67
2022/08/25 14:14:59;;;;;;;;;;;39.30;29.00;;;;;;5031127;28;20330;-72
2022/08/25 14:17:25;;;;;;;;;;;39.50;29.10;;;;;;5029241;28;19919;-72
2022/08/25 14:19:50;;;;;;;;;;;39.60;29.00;;;;;;5029255;28;19917;-71
2022/08/25 14:22:16;;;;;;;;;;;39.60;28.60;;;;;;5024897;28;19918;-72
2022/08/25 14:24:42;;;;;;;;;;;39.60;28.60;;;;;;5027548;28;19955;-71
2022/08/25 14:27:08;;;;;;;;;;;39.60;28.80;;;;;;5011262;28;19940;-72